AirNav   Everest Fuels
 
 1703 users online  

8WA7 Gossard Field Airport
St John, Washington, USA

GOING TO ST JOHN?


FAA INFORMATION EFFECTIVE 04 NOVEMBER 2021

Location

FAA Identifier: 8WA7
Lat/Long: 47-06-54.6020N 117-34-26.7120W
47-06.910033N 117-34.445200W
47.1151672,-117.5740867
(estimated)
Elevation: 1973 ft. / 601 m (estimated)
Variation: 19E (1985)
From city: 1 mile NW of ST JOHN, WA
Time zone: UTC -7 (UTC -8 during Standard Time)
Zip code: 99171

Airport Operations

Airport use: Private use. Permission required prior to landing
Activation date: 07/1976
Control tower: no
ARTCC: SEATTLE CENTER
FSS: SEATTLE FLIGHT SERVICE STATION
Attendance: CONTINUOUS
Wind indicator: yes
Segmented circle: no

Nearby radio navigation aids

VOR radial/distance  VOR name  Freq  Var
GEGr154/27.1SPOKANE VORTAC115.5021E
PUWr311/30.1PULLMAN VOR/DME109.0020E

Airport Services

Runway Information

Runway N/S

Dimensions: 2000 x 80 ft. / 610 x 24 m
Surface: turf/gravel
15' WIDE GRVL STRIP DOWN CNTR OF 80' TURF AREA.
RUNWAY N  RUNWAY S
Traffic pattern: leftright
Obstructions: plines, 200 ft. from runway50 ft. tree, 100 ft. from runway

Airport Ownership and Management from official FAA records

Ownership: Privately-owned
Owner: WESLEY R. GOSSARD
RT 2, BOX 3
ST JOHN, WA 99171
Phone 509-648-3722
Manager: WESLEY R. GOSSARD
RT 2, BOX 3
ST JOHN, WA 99171
Phone 509-648-3722

Airport Operational Statistics

Aircraft based on the field: 5
Single engine airplanes: 5
    

Additional Remarks

FOR CD CTC SEATTLE ARTCC AT 253-351-3694.

Instrument Procedures

There are no published instrument procedures at 8WA7.

Some nearby airports with instrument procedures:

KPUW - Pullman/Moscow Regional Airport (29 nm SE)
KSKA - Fairchild Air Force Base (30 nm N)
KGEG - Spokane International Airport (30 nm N)
KSFF - Felts Field Airport (36 nm N)
KCOE - Coeur d'Alene Airport - Pappy Boyington Field (50 nm NE)
 
Loc | Ops | Rwys | IFR | FBO | Links
Com | Nav | Svcs | Stats | Notes
Area around 8WA7 (Gossard Field Airport)
 
Road maps at: MapQuest Bing Google
 
Aerial photo
No photo
 
Sectional chart

 
Airport distance calculator
Flying to Gossard Field Airport? Find the distance to fly.

From to 8WA7

Sunrise and sunset
Times for 30-Nov-2021
 Local
(UTC-8)
 Zulu
(UTC)
Morning civil twilight06:4114:41
Sunrise07:1615:16
Sunset16:0200:02
Evening civil twilight16:3700:37

Current date and time
Zulu (UTC)  30-Nov-2021 19:59:30
Local (UTC-8)  30-Nov-2021 11:59:30
 
METAR
KPUW 
29nm SE 
301953Z AUTO 14005KT 10SM BKN065 OVC080 08/04 A3019 RMK AO2 SLP236 T00780039
KGEG 
30nm N 
301953Z 21015KT 10SM SCT012 BKN100 OVC170 09/06 A3012 RMK AO2 SLP205 T00940061
KSKA 
30nm N 
301858Z 17009KT 10SM FEW013 BKN060 BKN090 OVC110 08/08 A3008 RMK AO2A SLP198 T00780077 $
KSFF 
36nm N 
301953Z VRB04KT 10SM BKN020 OVC070 11/06 A3013 RMK AO2 SLP204 T01060061
KCOE 
50nm NE 
301856Z AUTO 17010KT 10SM -RA OVC028 08/05 A3012 RMK AO2 RAB11 SLP225 P0001 T00780050
TAF
KPUW 
29nm SE 
301738Z 3018/0118 13011KT P6SM VCSH BKN035 BKN060 OVC090 WS020/24035KT FM302100 22012G20KT P6SM BKN050 FM010000 22010KT P6SM BKN050 FM011300 16008KT P6SM SCT050 BKN080 WS020/22036KT
KGEG 
30nm N 
301738Z 3018/0118 20015G21KT P6SM SCT030 OVC080 FM010000 20012G18KT P6SM VCSH FEW020 OVC050 FM010500 20017G26KT P6SM SCT025 BKN060
KSKA 
30nm N 
301100Z 3011/0117 17010KT 9999 BKN100 QNH3007INS BECMG 3015/3016 20012G20KT 9999 BKN040 620557 QNH3007INS WND 20015G25KT AFT 3021 TEMPO 3020/3024 VCSH OVC030 BECMG 0100/0101 20012G22KT 9999 SCT010 BKN040 620805 QNH3010INS BECMG 0112/0113 21012G20KT 9999 BKN060 620904 QNH3008INS TX11/3022Z TN06/3011Z
KSFF 
36nm N 
301738Z 3018/0118 22010G17KT P6SM FEW035 OVC080 FM302300 22010KT P6SM VCSH OVC050 FM010500 22010G20KT P6SM SCT030 OVC050
NOTAMs
Click for the latest NOTAMs
NOTAMs are issued by the DoD/FAA and will open in a separate window not controlled by AirNav.

 

 
 

Would you like to see your business listed on this page?

 If your business provides an interesting product or service to pilots, flight crews, aircraft, or users of the Gossard Field Airport, you should consider listing it here.  To start the listing process, click on the button below
 
Add a business
 

Other Pages about Gossard Field Airport

Update a link
 
Copyright © AirNav, LLC. All rights reserved. Privacy Policy  Contact